sensor_id;sensor_type;location;lat;lon;timestamp;P1;durP1;ratioP1;P2;durP2;ratioP2
6987;SDS011;3534;49.960;8.018;2023-04-24T00:00:25;2.93;;;1.00;;
6987;SDS011;3534;49.960;8.018;2023-04-24T00:02:51;1.00;;;0.90;;
6987;SDS011;3534;49.960;8.018;2023-04-24T00:05:21;2.20;;;1.10;;
6987;SDS011;3534;49.960;8.018;2023-04-24T00:07:49;5.07;;;1.07;;
6987;SDS011;3534;49.960;8.018;2023-04-24T00:10:18;2.30;;;1.00;;
6987;SDS011;3534;49.960;8.018;2023-04-24T00:12:45;1.37;;;0.90;;
6987;SDS011;3534;49.960;8.018;2023-04-24T00:15:12;1.83;;;0.83;;
6987;SDS011;3534;49.960;8.018;2023-04-24T00:17:38;2.27;;;0.87;;
6987;SDS011;3534;49.960;8.018;2023-04-24T00:20:06;2.10;;;1.10;;
6987;SDS011;3534;49.960;8.018;2023-04-24T00:22:33;1.00;;;0.90;;
6987;SDS011;3534;49.960;8.018;2023-04-24T00:24:59;4.37;;;1.20;;
6987;SDS011;3534;49.960;8.018;2023-04-24T00:27:27;1.80;;;0.90;;
6987;SDS011;3534;49.960;8.018;2023-04-24T00:29:54;6.33;;;0.97;;
6987;SDS011;3534;49.960;8.018;2023-04-24T00:32:21;1.40;;;0.90;;
6987;SDS011;3534;49.960;8.018;2023-04-24T00:34:48;1.60;;;1.07;;
6987;SDS011;3534;49.960;8.018;2023-04-24T00:37:14;1.27;;;0.87;;
6987;SDS011;3534;49.960;8.018;2023-04-24T00:39:41;1.67;;;1.00;;
6987;SDS011;3534;49.960;8.018;2023-04-24T00:42:08;1.20;;;0.93;;
6987;SDS011;3534;49.960;8.018;2023-04-24T00:44:36;2.63;;;0.90;;
6987;SDS011;3534;49.960;8.018;2023-04-24T00:47:03;1.13;;;0.80;;
6987;SDS011;3534;49.960;8.018;2023-04-24T00:49:30;1.00;;;0.90;;
6987;SDS011;3534;49.960;8.018;2023-04-24T00:51:56;2.57;;;1.00;;
6987;SDS011;3534;49.960;8.018;2023-04-24T00:54:24;1.67;;;1.00;;
6987;SDS011;3534;49.960;8.018;2023-04-24T00:56:51;2.93;;;0.90;;
6987;SDS011;3534;49.960;8.018;2023-04-24T00:59:17;2.00;;;0.80;;
6987;SDS011;3534;49.960;8.018;2023-04-24T01:01:46;4.10;;;1.20;;
6987;SDS011;3534;49.960;8.018;2023-04-24T01:04:13;3.43;;;1.27;;
6987;SDS011;3534;49.960;8.018;2023-04-24T01:06:40;2.23;;;1.10;;
6987;SDS011;3534;49.960;8.018;2023-04-24T01:09:09;5.43;;;0.90;;
6987;SDS011;3534;49.960;8.018;2023-04-24T01:11:38;1.83;;;1.00;;
6987;SDS011;3534;49.960;8.018;2023-04-24T01:14:05;3.60;;;0.97;;
6987;SDS011;3534;49.960;8.018;2023-04-24T01:16:32;4.60;;;0.90;;
6987;SDS011;3534;49.960;8.018;2023-04-24T01:19:00;1.37;;;1.27;;
6987;SDS011;3534;49.960;8.018;2023-04-24T01:21:27;0.90;;;0.80;;
6987;SDS011;3534;49.960;8.018;2023-04-24T01:24:02;1.63;;;1.00;;
6987;SDS011;3534;49.960;8.018;2023-04-24T01:26:28;3.23;;;0.90;;
6987;SDS011;3534;49.960;8.018;2023-04-24T01:28:55;3.97;;;0.83;;
6987;SDS011;3534;49.960;8.018;2023-04-24T01:31:22;2.13;;;1.00;;
6987;SDS011;3534;49.960;8.018;2023-04-24T01:33:49;5.03;;;1.17;;
6987;SDS011;3534;49.960;8.018;2023-04-24T01:36:16;1.77;;;0.97;;
6987;SDS011;3534;49.960;8.018;2023-04-24T01:38:44;2.33;;;1.03;;
6987;SDS011;3534;49.960;8.018;2023-04-24T01:41:12;1.37;;;1.10;;
6987;SDS011;3534;49.960;8.018;2023-04-24T01:43:39;2.00;;;1.20;;
6987;SDS011;3534;49.960;8.018;2023-04-24T01:46:06;2.10;;;0.83;;
6987;SDS011;3534;49.960;8.018;2023-04-24T01:48:33;2.27;;;1.23;;
6987;SDS011;3534;49.960;8.018;2023-04-24T01:51:00;1.77;;;1.10;;
6987;SDS011;3534;49.960;8.018;2023-04-24T01:53:26;1.73;;;0.80;;
6987;SDS011;3534;49.960;8.018;2023-04-24T01:55:53;2.23;;;1.10;;
6987;SDS011;3534;49.960;8.018;2023-04-24T01:58:26;1.83;;;1.40;;
6987;SDS011;3534;49.960;8.018;2023-04-24T02:00:54;2.20;;;1.20;;
6987;SDS011;3534;49.960;8.018;2023-04-24T02:03:22;3.27;;;0.80;;
6987;SDS011;3534;49.960;8.018;2023-04-24T02:05:49;1.00;;;0.80;;
6987;SDS011;3534;49.960;8.018;2023-04-24T02:08:16;1.10;;;1.00;;
6987;SDS011;3534;49.960;8.018;2023-04-24T02:10:42;3.67;;;0.80;;
6987;SDS011;3534;49.960;8.018;2023-04-24T02:13:10;1.83;;;1.20;;
6987;SDS011;3534;49.960;8.018;2023-04-24T02:15:38;1.60;;;1.00;;
6987;SDS011;3534;49.960;8.018;2023-04-24T02:18:04;1.60;;;1.30;;
6987;SDS011;3534;49.960;8.018;2023-04-24T02:20:31;2.43;;;1.00;;
6987;SDS011;3534;49.960;8.018;2023-04-24T02:22:59;1.77;;;1.23;;
6987;SDS011;3534;49.960;8.018;2023-04-24T02:25:25;0.90;;;0.80;;
6987;SDS011;3534;49.960;8.018;2023-04-24T02:27:52;1.00;;;0.70;;
6987;SDS011;3534;49.960;8.018;2023-04-24T02:30:19;1.40;;;0.90;;
6987;SDS011;3534;49.960;8.018;2023-04-24T02:32:47;5.53;;;1.27;;
6987;SDS011;3534;49.960;8.018;2023-04-24T02:35:14;1.33;;;0.80;;
6987;SDS011;3534;49.960;8.018;2023-04-24T02:37:41;0.90;;;0.90;;
6987;SDS011;3534;49.960;8.018;2023-04-24T02:40:08;0.87;;;0.67;;
6987;SDS011;3534;49.960;8.018;2023-04-24T02:42:35;0.80;;;0.73;;
6987;SDS011;3534;49.960;8.018;2023-04-24T02:45:02;1.30;;;0.83;;
6987;SDS011;3534;49.960;8.018;2023-04-24T02:47:30;1.10;;;1.00;;
6987;SDS011;3534;49.960;8.018;2023-04-24T02:49:58;2.20;;;1.47;;
6987;SDS011;3534;49.960;8.018;2023-04-24T02:52:24;2.57;;;1.27;;
6987;SDS011;3534;49.960;8.018;2023-04-24T02:54:51;6.00;;;1.80;;
6987;SDS011;3534;49.960;8.018;2023-04-24T02:57:18;2.90;;;1.70;;
6987;SDS011;3534;49.960;8.018;2023-04-24T02:59:45;0.90;;;0.90;;
6987;SDS011;3534;49.960;8.018;2023-04-24T03:02:12;1.20;;;1.10;;
6987;SDS011;3534;49.960;8.018;2023-04-24T03:04:38;1.10;;;1.00;;
6987;SDS011;3534;49.960;8.018;2023-04-24T03:07:09;2.60;;;1.20;;
6987;SDS011;3534;49.960;8.018;2023-04-24T03:09:35;1.50;;;1.10;;
6987;SDS011;3534;49.960;8.018;2023-04-24T03:12:02;1.63;;;1.30;;
6987;SDS011;3534;49.960;8.018;2023-04-24T03:14:29;2.60;;;1.73;;
6987;SDS011;3534;49.960;8.018;2023-04-24T03:16:56;1.70;;;1.60;;
6987;SDS011;3534;49.960;8.018;2023-04-24T03:19:23;5.70;;;1.30;;
6987;SDS011;3534;49.960;8.018;2023-04-24T03:21:49;1.93;;;1.10;;
6987;SDS011;3534;49.960;8.018;2023-04-24T03:24:17;3.50;;;0.87;;
6987;SDS011;3534;49.960;8.018;2023-04-24T03:26:45;2.23;;;1.00;;
6987;SDS011;3534;49.960;8.018;2023-04-24T03:29:12;2.70;;;1.80;;
6987;SDS011;3534;49.960;8.018;2023-04-24T03:31:39;2.70;;;1.70;;
6987;SDS011;3534;49.960;8.018;2023-04-24T03:34:05;2.43;;;1.10;;
6987;SDS011;3534;49.960;8.018;2023-04-24T03:36:32;1.10;;;1.00;;
6987;SDS011;3534;49.960;8.018;2023-04-24T03:38:58;2.50;;;1.23;;
6987;SDS011;3534;49.960;8.018;2023-04-24T03:41:26;1.67;;;1.10;;
6987;SDS011;3534;49.960;8.018;2023-04-24T03:43:53;4.40;;;1.67;;
6987;SDS011;3534;49.960;8.018;2023-04-24T03:46:20;3.40;;;1.90;;
6987;SDS011;3534;49.960;8.018;2023-04-24T03:48:47;1.87;;;1.30;;
6987;SDS011;3534;49.960;8.018;2023-04-24T03:51:13;3.43;;;1.37;;
6987;SDS011;3534;49.960;8.018;2023-04-24T03:53:40;1.40;;;1.30;;
6987;SDS011;3534;49.960;8.018;2023-04-24T03:56:07;4.07;;;1.87;;
6987;SDS011;3534;49.960;8.018;2023-04-24T03:58:35;1.83;;;1.43;;
6987;SDS011;3534;49.960;8.018;2023-04-24T04:01:01;2.23;;;2.03;;
6987;SDS011;3534;49.960;8.018;2023-04-24T04:03:28;2.03;;;1.63;;
6987;SDS011;3534;49.960;8.018;2023-04-24T04:05:55;1.80;;;1.67;;
6987;SDS011;3534;49.960;8.018;2023-04-24T04:08:22;3.00;;;1.50;;
6987;SDS011;3534;49.960;8.018;2023-04-24T04:10:48;1.60;;;1.50;;
6987;SDS011;3534;49.960;8.018;2023-04-24T04:13:15;1.50;;;1.40;;
6987;SDS011;3534;49.960;8.018;2023-04-24T04:15:43;1.80;;;1.57;;
6987;SDS011;3534;49.960;8.018;2023-04-24T04:18:10;4.57;;;2.00;;
6987;SDS011;3534;49.960;8.018;2023-04-24T04:20:36;2.93;;;1.73;;
6987;SDS011;3534;49.960;8.018;2023-04-24T04:23:03;2.90;;;2.20;;
6987;SDS011;3534;49.960;8.018;2023-04-24T04:25:29;1.77;;;1.67;;
6987;SDS011;3534;49.960;8.018;2023-04-24T04:27:56;3.10;;;1.80;;
6987;SDS011;3534;49.960;8.018;2023-04-24T04:30:24;3.83;;;2.00;;
6987;SDS011;3534;49.960;8.018;2023-04-24T04:32:52;2.00;;;1.83;;
6987;SDS011;3534;49.960;8.018;2023-04-24T04:35:19;3.20;;;1.97;;
6987;SDS011;3534;49.960;8.018;2023-04-24T04:37:46;2.60;;;2.40;;
6987;SDS011;3534;49.960;8.018;2023-04-24T04:40:12;2.87;;;2.47;;
6987;SDS011;3534;49.960;8.018;2023-04-24T04:42:39;2.40;;;1.90;;
6987;SDS011;3534;49.960;8.018;2023-04-24T04:45:06;2.30;;;2.17;;
6987;SDS011;3534;49.960;8.018;2023-04-24T04:47:36;5.63;;;2.30;;
6987;SDS011;3534;49.960;8.018;2023-04-24T04:50:06;4.10;;;2.60;;
6987;SDS011;3534;49.960;8.018;2023-04-24T04:52:33;1.87;;;1.77;;
6987;SDS011;3534;49.960;8.018;2023-04-24T04:55:00;3.03;;;2.67;;
6987;SDS011;3534;49.960;8.018;2023-04-24T04:57:26;3.37;;;2.30;;
6987;SDS011;3534;49.960;8.018;2023-04-24T04:59:53;2.90;;;2.60;;
6987;SDS011;3534;49.960;8.018;2023-04-24T05:02:20;2.43;;;2.00;;
6987;SDS011;3534;49.960;8.018;2023-04-24T05:04:46;2.60;;;2.40;;
6987;SDS011;3534;49.960;8.018;2023-04-24T05:07:14;7.17;;;3.50;;
6987;SDS011;3534;49.960;8.018;2023-04-24T05:09:41;3.63;;;2.93;;
6987;SDS011;3534;49.960;8.018;2023-04-24T05:12:08;10.30;;;4.37;;
6987;SDS011;3534;49.960;8.018;2023-04-24T05:14:35;3.80;;;3.10;;
6987;SDS011;3534;49.960;8.018;2023-04-24T05:17:02;2.87;;;2.53;;
6987;SDS011;3534;49.960;8.018;2023-04-24T05:19:28;4.37;;;3.07;;
6987;SDS011;3534;49.960;8.018;2023-04-24T05:21:57;3.47;;;2.60;;
6987;SDS011;3534;49.960;8.018;2023-04-24T05:24:25;6.17;;;3.10;;
6987;SDS011;3534;49.960;8.018;2023-04-24T05:26:52;2.27;;;2.07;;
6987;SDS011;3534;49.960;8.018;2023-04-24T05:29:19;3.17;;;2.53;;
6987;SDS011;3534;49.960;8.018;2023-04-24T05:31:46;3.80;;;2.70;;
6987;SDS011;3534;49.960;8.018;2023-04-24T05:34:13;7.23;;;2.60;;
6987;SDS011;3534;49.960;8.018;2023-04-24T05:36:41;3.53;;;2.63;;
6987;SDS011;3534;49.960;8.018;2023-04-24T05:39:07;5.17;;;2.43;;
6987;SDS011;3534;49.960;8.018;2023-04-24T05:41:35;2.90;;;2.47;;
6987;SDS011;3534;49.960;8.018;2023-04-24T05:44:02;2.77;;;2.50;;
6987;SDS011;3534;49.960;8.018;2023-04-24T05:46:29;2.67;;;2.47;;
6987;SDS011;3534;49.960;8.018;2023-04-24T05:48:55;7.03;;;2.87;;
6987;SDS011;3534;49.960;8.018;2023-04-24T05:51:22;5.70;;;2.87;;
6987;SDS011;3534;49.960;8.018;2023-04-24T05:53:49;3.63;;;2.80;;
6987;SDS011;3534;49.960;8.018;2023-04-24T05:56:16;7.77;;;2.77;;
6987;SDS011;3534;49.960;8.018;2023-04-24T05:58:45;3.40;;;3.10;;
6987;SDS011;3534;49.960;8.018;2023-04-24T06:01:12;4.33;;;2.70;;
6987;SDS011;3534;49.960;8.018;2023-04-24T06:03:39;2.60;;;2.40;;
6987;SDS011;3534;49.960;8.018;2023-04-24T06:06:06;3.10;;;2.70;;
6987;SDS011;3534;49.960;8.018;2023-04-24T06:08:34;3.63;;;2.70;;
6987;SDS011;3534;49.960;8.018;2023-04-24T06:11:01;2.70;;;2.50;;
6987;SDS011;3534;49.960;8.018;2023-04-24T06:13:27;3.27;;;2.77;;
6987;SDS011;3534;49.960;8.018;2023-04-24T06:15:55;2.47;;;2.27;;
6987;SDS011;3534;49.960;8.018;2023-04-24T06:18:22;4.10;;;2.97;;
6987;SDS011;3534;49.960;8.018;2023-04-24T06:20:49;3.20;;;2.87;;
6987;SDS011;3534;49.960;8.018;2023-04-24T06:23:16;4.53;;;3.30;;
6987;SDS011;3534;49.960;8.018;2023-04-24T06:25:43;3.50;;;3.10;;
6987;SDS011;3534;49.960;8.018;2023-04-24T06:28:10;5.13;;;4.33;;
6987;SDS011;3534;49.960;8.018;2023-04-24T06:30:36;4.90;;;3.37;;
6987;SDS011;3534;49.960;8.018;2023-04-24T06:33:04;4.30;;;3.17;;
6987;SDS011;3534;49.960;8.018;2023-04-24T06:35:31;2.60;;;2.40;;
6987;SDS011;3534;49.960;8.018;2023-04-24T06:37:58;5.23;;;3.00;;
6987;SDS011;3534;49.960;8.018;2023-04-24T06:40:24;4.83;;;3.20;;
6987;SDS011;3534;49.960;8.018;2023-04-24T06:42:51;4.90;;;2.77;;
6987;SDS011;3534;49.960;8.018;2023-04-24T06:45:18;3.27;;;2.97;;
6987;SDS011;3534;49.960;8.018;2023-04-24T06:47:45;3.30;;;2.70;;
6987;SDS011;3534;49.960;8.018;2023-04-24T06:50:13;3.30;;;2.80;;
6987;SDS011;3534;49.960;8.018;2023-04-24T06:52:40;3.43;;;2.97;;
6987;SDS011;3534;49.960;8.018;2023-04-24T06:55:07;3.30;;;3.00;;
6987;SDS011;3534;49.960;8.018;2023-04-24T06:57:35;7.23;;;2.30;;
6987;SDS011;3534;49.960;8.018;2023-04-24T07:00:02;3.87;;;2.53;;
6987;SDS011;3534;49.960;8.018;2023-04-24T07:02:30;3.53;;;3.20;;
6987;SDS011;3534;49.960;8.018;2023-04-24T07:04:56;4.80;;;3.00;;
6987;SDS011;3534;49.960;8.018;2023-04-24T07:07:24;2.97;;;2.67;;
6987;SDS011;3534;49.960;8.018;2023-04-24T07:09:51;4.20;;;3.57;;
6987;SDS011;3534;49.960;8.018;2023-04-24T07:12:19;3.93;;;2.67;;
6987;SDS011;3534;49.960;8.018;2023-04-24T07:14:46;7.87;;;3.30;;
6987;SDS011;3534;49.960;8.018;2023-04-24T07:17:13;3.13;;;2.60;;
6987;SDS011;3534;49.960;8.018;2023-04-24T07:19:40;4.03;;;2.90;;
6987;SDS011;3534;49.960;8.018;2023-04-24T07:22:07;3.93;;;2.90;;
6987;SDS011;3534;49.960;8.018;2023-04-24T07:24:35;4.60;;;2.90;;
6987;SDS011;3534;49.960;8.018;2023-04-24T07:27:01;3.93;;;2.83;;
6987;SDS011;3534;49.960;8.018;2023-04-24T07:29:28;4.47;;;2.90;;
6987;SDS011;3534;49.960;8.018;2023-04-24T07:31:55;2.83;;;2.57;;
6987;SDS011;3534;49.960;8.018;2023-04-24T07:34:22;3.80;;;2.73;;
6987;SDS011;3534;49.960;8.018;2023-04-24T07:36:48;3.00;;;2.73;;
6987;SDS011;3534;49.960;8.018;2023-04-24T07:39:16;5.20;;;2.60;;
6987;SDS011;3534;49.960;8.018;2023-04-24T07:41:44;3.47;;;2.70;;
6987;SDS011;3534;49.960;8.018;2023-04-24T07:44:10;3.67;;;2.70;;
6987;SDS011;3534;49.960;8.018;2023-04-24T07:46:37;6.93;;;2.77;;
6987;SDS011;3534;49.960;8.018;2023-04-24T07:49:04;2.80;;;2.40;;
6987;SDS011;3534;49.960;8.018;2023-04-24T07:51:30;4.27;;;2.53;;
6987;SDS011;3534;49.960;8.018;2023-04-24T07:53:58;4.03;;;2.10;;
6987;SDS011;3534;49.960;8.018;2023-04-24T07:56:25;2.57;;;2.37;;
6987;SDS011;3534;49.960;8.018;2023-04-24T07:58:53;2.47;;;2.27;;
6987;SDS011;3534;49.960;8.018;2023-04-24T08:01:20;2.83;;;2.27;;
6987;SDS011;3534;49.960;8.018;2023-04-24T08:03:46;3.13;;;2.40;;
6987;SDS011;3534;49.960;8.018;2023-04-24T08:06:13;2.60;;;2.40;;
6987;SDS011;3534;49.960;8.018;2023-04-24T08:08:40;2.70;;;2.07;;
6987;SDS011;3534;49.960;8.018;2023-04-24T08:11:06;4.83;;;2.70;;
6987;SDS011;3534;49.960;8.018;2023-04-24T08:13:33;2.80;;;2.60;;
6987;SDS011;3534;49.960;8.018;2023-04-24T08:16:01;3.50;;;2.27;;
6987;SDS011;3534;49.960;8.018;2023-04-24T08:18:28;2.60;;;2.40;;
6987;SDS011;3534;49.960;8.018;2023-04-24T08:20:54;2.83;;;2.40;;
6987;SDS011;3534;49.960;8.018;2023-04-24T08:23:26;7.97;;;2.67;;
6987;SDS011;3534;49.960;8.018;2023-04-24T08:25:53;4.10;;;2.03;;
6987;SDS011;3534;49.960;8.018;2023-04-24T08:28:20;2.90;;;2.70;;
6987;SDS011;3534;49.960;8.018;2023-04-24T08:30:47;5.87;;;2.13;;
6987;SDS011;3534;49.960;8.018;2023-04-24T08:33:20;2.57;;;2.30;;
6987;SDS011;3534;49.960;8.018;2023-04-24T08:35:47;4.90;;;2.70;;
6987;SDS011;3534;49.960;8.018;2023-04-24T08:38:14;3.90;;;2.00;;
6987;SDS011;3534;49.960;8.018;2023-04-24T08:40:41;3.10;;;2.10;;
6987;SDS011;3534;49.960;8.018;2023-04-24T08:43:10;2.23;;;2.03;;
6987;SDS011;3534;49.960;8.018;2023-04-24T08:45:41;4.50;;;2.43;;
6987;SDS011;3534;49.960;8.018;2023-04-24T08:48:08;2.50;;;2.30;;
6987;SDS011;3534;49.960;8.018;2023-04-24T08:50:37;6.33;;;2.30;;
6987;SDS011;3534;49.960;8.018;2023-04-24T08:53:07;2.00;;;1.90;;
6987;SDS011;3534;49.960;8.018;2023-04-24T08:55:35;2.20;;;2.00;;
6987;SDS011;3534;49.960;8.018;2023-04-24T08:58:02;3.10;;;2.00;;
6987;SDS011;3534;49.960;8.018;2023-04-24T09:00:30;2.93;;;2.17;;
6987;SDS011;3534;49.960;8.018;2023-04-24T09:02:57;3.20;;;2.07;;
6987;SDS011;3534;49.960;8.018;2023-04-24T09:05:26;2.27;;;2.07;;
6987;SDS011;3534;49.960;8.018;2023-04-24T09:07:55;7.17;;;2.30;;
6987;SDS011;3534;49.960;8.018;2023-04-24T09:10:23;4.20;;;2.30;;
6987;SDS011;3534;49.960;8.018;2023-04-24T09:12:51;2.37;;;2.17;;
6987;SDS011;3534;49.960;8.018;2023-04-24T09:15:18;11.60;;;2.70;;
6987;SDS011;3534;49.960;8.018;2023-04-24T09:17:46;4.00;;;1.80;;
6987;SDS011;3534;49.960;8.018;2023-04-24T09:20:13;9.70;;;2.27;;
6987;SDS011;3534;49.960;8.018;2023-04-24T09:22:39;2.60;;;2.30;;
6987;SDS011;3534;49.960;8.018;2023-04-24T09:25:09;4.53;;;2.30;;
6987;SDS011;3534;49.960;8.018;2023-04-24T09:27:38;2.03;;;1.77;;
6987;SDS011;3534;49.960;8.018;2023-04-24T09:30:08;2.90;;;2.13;;
6987;SDS011;3534;49.960;8.018;2023-04-24T09:32:36;5.23;;;1.93;;
6987;SDS011;3534;49.960;8.018;2023-04-24T09:35:06;1.83;;;1.73;;
6987;SDS011;3534;49.960;8.018;2023-04-24T09:37:35;3.47;;;1.67;;
6987;SDS011;3534;49.960;8.018;2023-04-24T09:40:14;1.50;;;1.37;;
6987;SDS011;3534;49.960;8.018;2023-04-24T09:42:45;3.53;;;1.30;;
6987;SDS011;3534;49.960;8.018;2023-04-24T09:45:12;3.73;;;2.13;;
6987;SDS011;3534;49.960;8.018;2023-04-24T09:47:39;1.70;;;1.60;;
6987;SDS011;3534;49.960;8.018;2023-04-24T09:50:10;3.03;;;1.80;;
6987;SDS011;3534;49.960;8.018;2023-04-24T09:52:42;2.63;;;1.77;;
6987;SDS011;3534;49.960;8.018;2023-04-24T09:55:18;3.50;;;1.67;;
6987;SDS011;3534;49.960;8.018;2023-04-24T09:57:52;1.70;;;1.60;;
6987;SDS011;3534;49.960;8.018;2023-04-24T10:00:23;2.80;;;1.70;;
6987;SDS011;3534;49.960;8.018;2023-04-24T10:02:54;2.10;;;1.50;;
6987;SDS011;3534;49.960;8.018;2023-04-24T10:05:31;2.90;;;1.87;;
6987;SDS011;3534;49.960;8.018;2023-04-24T10:08:02;3.37;;;1.67;;
6987;SDS011;3534;49.960;8.018;2023-04-24T10:10:32;1.57;;;1.47;;
6987;SDS011;3534;49.960;8.018;2023-04-24T10:13:00;3.17;;;1.80;;
6987;SDS011;3534;49.960;8.018;2023-04-24T10:15:27;1.47;;;1.37;;
6987;SDS011;3534;49.960;8.018;2023-04-24T10:17:53;2.33;;;2.13;;
6987;SDS011;3534;49.960;8.018;2023-04-24T10:20:21;1.60;;;1.40;;
6987;SDS011;3534;49.960;8.018;2023-04-24T10:22:49;3.70;;;2.53;;
6987;SDS011;3534;49.960;8.018;2023-04-24T10:25:18;11.23;;;7.43;;
6987;SDS011;3534;49.960;8.018;2023-04-24T10:27:48;8.00;;;2.90;;
6987;SDS011;3534;49.960;8.018;2023-04-24T10:30:16;2.20;;;1.40;;
6987;SDS011;3534;49.960;8.018;2023-04-24T10:32:43;2.07;;;1.93;;
6987;SDS011;3534;49.960;8.018;2023-04-24T10:35:11;9.27;;;7.47;;
6987;SDS011;3534;49.960;8.018;2023-04-24T10:37:40;2.57;;;2.43;;
6987;SDS011;3534;49.960;8.018;2023-04-24T10:40:09;1.93;;;1.83;;
6987;SDS011;3534;49.960;8.018;2023-04-24T10:42:39;1.93;;;1.30;;
6987;SDS011;3534;49.960;8.018;2023-04-24T10:45:11;1.17;;;1.07;;
6987;SDS011;3534;49.960;8.018;2023-04-24T10:47:42;1.00;;;0.80;;
6987;SDS011;3534;49.960;8.018;2023-04-24T10:50:16;2.47;;;1.17;;
6987;SDS011;3534;49.960;8.018;2023-04-24T10:52:43;1.37;;;1.27;;
6987;SDS011;3534;49.960;8.018;2023-04-24T10:55:11;2.13;;;1.80;;
6987;SDS011;3534;49.960;8.018;2023-04-24T10:57:39;1.80;;;1.70;;
6987;SDS011;3534;49.960;8.018;2023-04-24T11:00:12;1.57;;;1.47;;
6987;SDS011;3534;49.960;8.018;2023-04-24T11:02:45;1.50;;;1.40;;
6987;SDS011;3534;49.960;8.018;2023-04-24T11:05:18;3.83;;;1.20;;
6987;SDS011;3534;49.960;8.018;2023-04-24T11:10:38;1.60;;;0.97;;
6987;SDS011;3534;49.960;8.018;2023-04-24T11:13:06;1.60;;;1.07;;
6987;SDS011;3534;49.960;8.018;2023-04-24T11:15:34;3.10;;;1.40;;
6987;SDS011;3534;49.960;8.018;2023-04-24T11:18:01;2.07;;;1.67;;
6987;SDS011;3534;49.960;8.018;2023-04-24T11:20:28;4.87;;;2.37;;
6987;SDS011;3534;49.960;8.018;2023-04-24T11:22:55;2.60;;;1.53;;
6987;SDS011;3534;49.960;8.018;2023-04-24T11:25:30;2.10;;;2.00;;
6987;SDS011;3534;49.960;8.018;2023-04-24T11:28:02;1.73;;;1.30;;
6987;SDS011;3534;49.960;8.018;2023-04-24T11:30:30;2.03;;;1.70;;
6987;SDS011;3534;49.960;8.018;2023-04-24T11:33:04;2.17;;;1.97;;
6987;SDS011;3534;49.960;8.018;2023-04-24T11:35:34;1.90;;;1.70;;
6987;SDS011;3534;49.960;8.018;2023-04-24T11:38:04;7.20;;;2.43;;
6987;SDS011;3534;49.960;8.018;2023-04-24T11:40:32;2.57;;;1.87;;
6987;SDS011;3534;49.960;8.018;2023-04-24T11:42:59;3.73;;;2.17;;
6987;SDS011;3534;49.960;8.018;2023-04-24T11:45:29;3.73;;;2.90;;
6987;SDS011;3534;49.960;8.018;2023-04-24T11:47:57;3.47;;;3.13;;
6987;SDS011;3534;49.960;8.018;2023-04-24T11:50:25;4.17;;;2.20;;
6987;SDS011;3534;49.960;8.018;2023-04-24T11:52:53;2.47;;;1.97;;
6987;SDS011;3534;49.960;8.018;2023-04-24T11:55:27;5.40;;;2.50;;
6987;SDS011;3534;49.960;8.018;2023-04-24T11:57:55;3.50;;;2.87;;
6987;SDS011;3534;49.960;8.018;2023-04-24T12:00:23;4.03;;;1.97;;
6987;SDS011;3534;49.960;8.018;2023-04-24T12:02:51;7.47;;;2.73;;
6987;SDS011;3534;49.960;8.018;2023-04-24T12:05:30;3.53;;;2.23;;
6987;SDS011;3534;49.960;8.018;2023-04-24T12:07:56;6.63;;;2.53;;
6987;SDS011;3534;49.960;8.018;2023-04-24T12:10:24;2.10;;;1.90;;
6987;SDS011;3534;49.960;8.018;2023-04-24T12:12:52;3.40;;;2.10;;
6987;SDS011;3534;49.960;8.018;2023-04-24T12:15:20;3.90;;;2.47;;
6987;SDS011;3534;49.960;8.018;2023-04-24T12:17:47;5.57;;;2.60;;
6987;SDS011;3534;49.960;8.018;2023-04-24T12:20:16;3.57;;;2.47;;
6987;SDS011;3534;49.960;8.018;2023-04-24T12:22:44;4.43;;;2.30;;
6987;SDS011;3534;49.960;8.018;2023-04-24T12:25:12;6.70;;;2.50;;
6987;SDS011;3534;49.960;8.018;2023-04-24T12:27:41;3.43;;;2.50;;
6987;SDS011;3534;49.960;8.018;2023-04-24T12:30:10;3.50;;;2.70;;
6987;SDS011;3534;49.960;8.018;2023-04-24T12:32:41;6.57;;;4.47;;
6987;SDS011;3534;49.960;8.018;2023-04-24T12:35:08;5.50;;;3.23;;
6987;SDS011;3534;49.960;8.018;2023-04-24T12:37:35;7.47;;;3.07;;
6987;SDS011;3534;49.960;8.018;2023-04-24T12:40:06;2.93;;;2.60;;
6987;SDS011;3534;49.960;8.018;2023-04-24T12:42:34;3.37;;;2.70;;
6987;SDS011;3534;49.960;8.018;2023-04-24T12:45:07;4.57;;;3.07;;
6987;SDS011;3534;49.960;8.018;2023-04-24T12:47:37;3.90;;;2.50;;
6987;SDS011;3534;49.960;8.018;2023-04-24T12:50:05;3.30;;;2.70;;
6987;SDS011;3534;49.960;8.018;2023-04-24T12:52:32;5.63;;;2.83;;
6987;SDS011;3534;49.960;8.018;2023-04-24T12:55:00;3.87;;;2.20;;
6987;SDS011;3534;49.960;8.018;2023-04-24T12:57:29;7.60;;;3.00;;
6987;SDS011;3534;49.960;8.018;2023-04-24T12:59:57;3.53;;;2.63;;
6987;SDS011;3534;49.960;8.018;2023-04-24T13:02:25;4.57;;;3.37;;
6987;SDS011;3534;49.960;8.018;2023-04-24T13:04:53;2.77;;;2.53;;
6987;SDS011;3534;49.960;8.018;2023-04-24T13:07:20;8.00;;;3.13;;
6987;SDS011;3534;49.960;8.018;2023-04-24T13:09:47;5.20;;;2.73;;
6987;SDS011;3534;49.960;8.018;2023-04-24T13:12:15;7.63;;;3.30;;
6987;SDS011;3534;49.960;8.018;2023-04-24T13:14:43;6.13;;;3.10;;
6987;SDS011;3534;49.960;8.018;2023-04-24T13:17:10;3.10;;;2.33;;
6987;SDS011;3534;49.960;8.018;2023-04-24T13:19:38;4.80;;;2.60;;
6987;SDS011;3534;49.960;8.018;2023-04-24T13:22:05;3.47;;;3.00;;
6987;SDS011;3534;49.960;8.018;2023-04-24T13:24:33;3.57;;;3.03;;
6987;SDS011;3534;49.960;8.018;2023-04-24T13:27:00;5.73;;;3.03;;
6987;SDS011;3534;49.960;8.018;2023-04-24T13:29:27;3.93;;;2.30;;
6987;SDS011;3534;49.960;8.018;2023-04-24T13:31:55;2.83;;;2.43;;
6987;SDS011;3534;49.960;8.018;2023-04-24T13:34:22;5.50;;;2.50;;
6987;SDS011;3534;49.960;8.018;2023-04-24T13:36:49;3.10;;;2.77;;
6987;SDS011;3534;49.960;8.018;2023-04-24T13:39:16;3.80;;;2.50;;
6987;SDS011;3534;49.960;8.018;2023-04-24T13:41:43;4.83;;;2.87;;
6987;SDS011;3534;49.960;8.018;2023-04-24T13:44:12;7.00;;;3.27;;
6987;SDS011;3534;49.960;8.018;2023-04-24T13:46:38;4.30;;;3.03;;
6987;SDS011;3534;49.960;8.018;2023-04-24T13:49:06;2.93;;;2.67;;
6987;SDS011;3534;49.960;8.018;2023-04-24T13:51:33;4.73;;;2.67;;
6987;SDS011;3534;49.960;8.018;2023-04-24T13:54:00;3.97;;;3.30;;
6987;SDS011;3534;49.960;8.018;2023-04-24T13:56:27;3.57;;;2.50;;
6987;SDS011;3534;49.960;8.018;2023-04-24T13:58:54;5.97;;;3.70;;
6987;SDS011;3534;49.960;8.018;2023-04-24T14:01:20;3.73;;;3.13;;
6987;SDS011;3534;49.960;8.018;2023-04-24T14:03:49;3.10;;;2.47;;
6987;SDS011;3534;49.960;8.018;2023-04-24T14:06:18;4.97;;;3.07;;
6987;SDS011;3534;49.960;8.018;2023-04-24T14:08:45;3.07;;;2.47;;
6987;SDS011;3534;49.960;8.018;2023-04-24T14:11:12;8.80;;;3.57;;
6987;SDS011;3534;49.960;8.018;2023-04-24T14:13:39;4.43;;;2.83;;
6987;SDS011;3534;49.960;8.018;2023-04-24T14:16:07;4.77;;;3.17;;
6987;SDS011;3534;49.960;8.018;2023-04-24T14:18:34;4.67;;;3.47;;
6987;SDS011;3534;49.960;8.018;2023-04-24T14:21:01;4.10;;;2.67;;
6987;SDS011;3534;49.960;8.018;2023-04-24T14:23:30;3.47;;;2.70;;
6987;SDS011;3534;49.960;8.018;2023-04-24T14:25:56;3.30;;;2.57;;
6987;SDS011;3534;49.960;8.018;2023-04-24T14:28:23;3.37;;;2.50;;
6987;SDS011;3534;49.960;8.018;2023-04-24T14:30:51;4.03;;;2.43;;
6987;SDS011;3534;49.960;8.018;2023-04-24T14:33:18;3.80;;;3.40;;
6987;SDS011;3534;49.960;8.018;2023-04-24T14:35:45;4.03;;;2.90;;
6987;SDS011;3534;49.960;8.018;2023-04-24T14:38:12;4.73;;;2.70;;
6987;SDS011;3534;49.960;8.018;2023-04-24T14:40:41;8.00;;;2.90;;
6987;SDS011;3534;49.960;8.018;2023-04-24T14:43:08;4.30;;;3.07;;
6987;SDS011;3534;49.960;8.018;2023-04-24T14:45:35;5.90;;;3.83;;
6987;SDS011;3534;49.960;8.018;2023-04-24T14:48:02;6.70;;;4.00;;
6987;SDS011;3534;49.960;8.018;2023-04-24T14:50:29;4.77;;;3.10;;
6987;SDS011;3534;49.960;8.018;2023-04-24T14:52:56;4.30;;;2.90;;
6987;SDS011;3534;49.960;8.018;2023-04-24T14:55:23;3.37;;;2.87;;
6987;SDS011;3534;49.960;8.018;2023-04-24T14:57:52;5.17;;;2.93;;
6987;SDS011;3534;49.960;8.018;2023-04-24T15:00:19;3.73;;;2.93;;
6987;SDS011;3534;49.960;8.018;2023-04-24T15:02:48;3.20;;;2.90;;
6987;SDS011;3534;49.960;8.018;2023-04-24T15:05:14;3.00;;;2.70;;
6987;SDS011;3534;49.960;8.018;2023-04-24T15:07:41;3.93;;;2.70;;
6987;SDS011;3534;49.960;8.018;2023-04-24T15:10:08;5.03;;;2.97;;
6987;SDS011;3534;49.960;8.018;2023-04-24T15:12:36;3.43;;;2.77;;
6987;SDS011;3534;49.960;8.018;2023-04-24T15:15:04;4.70;;;2.97;;
6987;SDS011;3534;49.960;8.018;2023-04-24T15:17:32;7.20;;;3.17;;
6987;SDS011;3534;49.960;8.018;2023-04-24T15:19:59;4.30;;;2.83;;